Time;durP1;ratioP1;P1;durP2;ratioP2;P2;SDS_P1;SDS_P2;PMS_P1;PMS_P2;Temp;Humidity;BMP_temperature;BMP_pressure;BME280_temperature;BME280_humidity;BME280_pressure;Samples;Min_cycle;Max_cycle;Signal;HPM_P1;HPM_P2
2022/05/28 00:02:22;;;;;;;11.65;2.65;;;15.10;99.90;;;;;;5065753;28;20170;-77
2022/05/28 00:04:50;;;;;;;10.40;3.67;;;15.20;99.90;;;;;;5065602;28;20674;-77
2022/05/28 00:07:20;;;;;;;15.18;3.30;;;15.10;99.90;;;;;;5066405;28;20163;-77
2022/05/28 00:09:45;;;;;;;8.10;2.17;;;14.80;99.90;;;;;;5065788;28;20183;-76
2022/05/28 00:12:12;;;;;;;4.78;1.70;;;14.60;99.90;;;;;;5066142;28;20199;-77
2022/05/28 00:14:50;;;;;;;8.25;2.22;;;14.50;99.90;;;;;;5066976;28;20192;-78
2022/05/28 00:17:17;;;;;;;15.35;2.75;;;14.40;99.90;;;;;;5067600;28;20192;-77
2022/05/28 00:19:54;;;;;;;10.32;2.75;;;14.30;99.90;;;;;;5067123;28;20233;-77
2022/05/28 00:22:24;;;;;;;8.70;2.75;;;14.20;99.90;;;;;;5064948;28;20176;-76
2022/05/28 00:24:50;;;;;;;6.57;2.22;;;14.30;99.90;;;;;;5068539;28;20179;-77
2022/05/28 00:27:56;;;;;;;11.38;2.70;;;14.40;99.90;;;;;;5065460;28;20270;-76
2022/05/28 00:30:41;;;;;;;15.05;2.40;;;14.10;99.90;;;;;;5068128;28;20231;-76
2022/05/28 00:33:16;;;;;;;8.05;2.60;;;14.00;99.90;;;;;;5069669;28;20219;-77
2022/05/28 00:35:45;;;;;;;12.88;3.67;;;13.90;99.90;;;;;;5056925;28;20201;-77
2022/05/28 00:38:10;;;;;;;9.27;2.38;;;14.00;99.90;;;;;;5038229;28;20718;-76
2022/05/28 00:40:36;;;;;;;8.38;2.90;;;13.90;99.90;;;;;;5055497;28;20271;-77
2022/05/28 00:43:07;;;;;;;6.50;2.50;;;13.80;99.90;;;;;;5057910;28;20159;-76
2022/05/28 00:45:33;;;;;;;20.92;3.10;;;13.70;99.90;;;;;;5056709;28;20163;-76
2022/05/28 00:48:04;;;;;;;4.93;2.17;;;13.50;99.90;;;;;;5057025;28;20179;-76
2022/05/28 00:50:41;;;;;;;15.18;3.17;;;13.60;99.90;;;;;;5064619;28;20842;-77
2022/05/28 00:53:13;;;;;;;15.05;3.42;;;13.80;99.90;;;;;;5065189;28;20214;-77
2022/05/28 00:55:41;;;;;;;5.22;2.60;;;13.80;99.90;;;;;;5065146;28;20202;-77
2022/05/28 00:58:27;;;;;;;4.85;2.22;;;13.50;99.90;;;;;;5066020;28;20236;-76
2022/05/28 01:00:53;;;;;;;10.55;2.30;;;13.50;99.90;;;;;;5067303;28;20183;-77
2022/05/28 01:03:32;;;;;;;7.82;3.25;;;13.50;99.90;;;;;;5066448;28;20171;-81
2022/05/28 01:06:25;;;;;;;5.15;2.70;;;13.60;99.90;;;;;;5063095;28;20592;-77
2022/05/28 01:09:23;;;;;;;14.13;2.88;;;13.50;99.90;;;;;;5065359;28;20199;-78
2022/05/28 01:12:15;;;;;;;9.95;3.25;;;13.50;99.90;;;;;;5043493;28;20219;-77
2022/05/28 01:15:15;;;;;;;14.02;3.72;;;13.50;99.90;;;;;;5067302;28;20183;-76
2022/05/28 01:18:48;;;;;;;8.07;3.20;;;13.40;99.90;;;;;;5025249;28;20200;-79
2022/05/28 01:22:06;;;;;;;9.00;3.05;;;13.40;99.90;;;;;;4960294;29;20217;-77
2022/05/28 01:24:52;;;;;;;8.60;3.63;;;13.30;99.90;;;;;;4970317;29;20598;-77
2022/05/28 01:27:42;;;;;;;19.98;3.45;;;13.30;99.90;;;;;;5053194;28;20242;-76
2022/05/28 01:30:19;;;;;;;8.15;3.30;;;13.20;99.90;;;;;;5070045;28;20163;-77
2022/05/28 01:32:59;;;;;;;10.73;3.75;;;13.30;99.90;;;;;;5063729;28;20305;-76
2022/05/28 01:35:27;;;;;;;7.60;3.13;;;13.20;99.90;;;;;;5072217;28;20174;-79
2022/05/28 01:38:17;;;;;;;13.43;2.90;;;13.10;99.90;;;;;;5052028;28;20199;-78
2022/05/28 01:40:56;;;;;;;9.82;3.45;;;13.10;99.90;;;;;;5065498;28;20193;-78
2022/05/28 01:43:33;;;;;;;9.95;2.67;;;13.20;99.90;;;;;;5070861;28;20167;-77
2022/05/28 01:46:22;;;;;;;11.52;3.92;;;13.30;99.90;;;;;;5070984;28;20183;-77
2022/05/28 01:48:55;;;;;;;7.88;2.85;;;13.00;99.90;;;;;;5050218;28;20263;-77
2022/05/28 01:51:47;;;;;;;15.85;3.50;;;13.00;99.90;;;;;;5067135;28;20218;-80
2022/05/28 01:54:17;;;;;;;12.77;3.33;;;13.10;99.90;;;;;;5068370;28;20165;-79
2022/05/28 01:56:50;;;;;;;9.98;3.40;;;13.20;99.90;;;;;;5067652;28;20168;-77
2022/05/28 01:59:29;;;;;;;13.00;3.53;;;13.20;99.90;;;;;;5066563;28;20202;-77
2022/05/28 02:02:04;;;;;;;17.20;3.30;;;13.10;99.90;;;;;;5050391;28;20163;-77
2022/05/28 02:04:33;;;;;;;7.70;3.22;;;13.00;99.90;;;;;;5060784;28;20186;-78
2022/05/28 02:07:03;;;;;;;11.55;3.67;;;12.90;99.90;;;;;;5061658;28;20635;-78
2022/05/28 02:09:34;;;;;;;11.63;3.72;;;12.90;99.90;;;;;;5062288;28;20203;-76
2022/05/28 02:12:29;;;;;;;15.80;4.13;;;12.90;99.90;;;;;;5061365;28;20254;-78
2022/05/28 02:15:52;;;;;;;13.55;4.43;;;13.00;99.90;;;;;;5061263;28;20195;-77
2022/05/28 02:18:38;;;;;;;7.07;2.85;;;12.70;99.90;;;;;;5033143;28;20195;-76
2022/05/28 02:21:09;;;;;;;8.35;3.90;;;12.80;99.90;;;;;;5062883;28;20174;-76
2022/05/28 02:24:01;;;;;;;8.75;3.10;;;12.90;99.90;;;;;;5061282;28;20250;-77
2022/05/28 02:26:37;;;;;;;16.23;3.33;;;13.10;99.90;;;;;;5063241;28;20175;-77
2022/05/28 02:29:04;;;;;;;8.20;3.05;;;13.00;99.90;;;;;;5062290;28;20724;-76
2022/05/28 02:31:34;;;;;;;10.68;3.38;;;12.90;99.90;;;;;;5065371;28;20164;-77
2022/05/28 02:34:02;;;;;;;11.80;3.67;;;13.00;99.90;;;;;;5065595;28;20175;-77
2022/05/28 02:36:31;;;;;;;8.60;3.20;;;12.70;99.90;;;;;;5068846;28;20162;-77
2022/05/28 02:38:58;;;;;;;9.00;3.10;;;12.60;99.90;;;;;;5068803;28;20259;-77
2022/05/28 02:41:28;;;;;;;10.07;3.63;;;12.60;99.90;;;;;;5069347;28;20246;-76
2022/05/28 02:43:54;;;;;;;8.20;3.03;;;12.70;99.90;;;;;;5046039;28;20521;-77
2022/05/28 02:46:20;;;;;;;12.10;3.47;;;12.90;99.90;;;;;;5066132;28;20218;-77
2022/05/28 02:48:46;;;;;;;12.35;2.88;;;13.00;99.90;;;;;;5065377;28;20191;-77
2022/05/28 02:51:20;;;;;;;9.02;3.97;;;12.90;99.90;;;;;;5065857;28;20163;-77
2022/05/28 02:53:52;;;;;;;11.75;4.13;;;12.60;99.90;;;;;;5067760;28;20207;-77
2022/05/28 02:56:19;;;;;;;5.88;3.00;;;12.70;99.90;;;;;;5068309;28;20171;-77
2022/05/28 02:58:47;;;;;;;5.13;3.50;;;12.90;99.90;;;;;;5052357;28;20583;-77
2022/05/28 03:01:38;;;;;;;9.32;3.15;;;12.80;99.90;;;;;;5069362;28;20190;-76
2022/05/28 03:04:10;;;;;;;12.20;3.53;;;12.80;99.90;;;;;;5071755;28;20561;-79
2022/05/28 03:07:01;;;;;;;14.20;4.10;;;12.70;99.90;;;;;;5051967;28;20191;-81
2022/05/28 03:09:27;;;;;;;9.35;4.20;;;12.50;99.90;;;;;;5068077;28;20202;-77
2022/05/28 03:11:59;;;;;;;13.07;3.38;;;12.50;99.90;;;;;;5069408;28;20195;-77
2022/05/28 03:14:26;;;;;;;19.23;3.58;;;12.50;99.90;;;;;;5068454;28;20167;-77
2022/05/28 03:16:53;;;;;;;18.88;4.15;;;12.40;99.90;;;;;;5050087;28;20178;-77
2022/05/28 03:19:29;;;;;;;13.95;4.93;;;12.40;99.90;;;;;;5069687;28;20609;-76
2022/05/28 03:22:22;;;;;;;7.47;3.15;;;12.60;99.90;;;;;;5073403;28;20179;-77
2022/05/28 03:24:49;;;;;;;7.45;3.17;;;12.50;99.90;;;;;;5070141;28;20190;-82
2022/05/28 03:27:14;;;;;;;13.95;3.40;;;12.40;99.90;;;;;;5068729;28;20167;-77
2022/05/28 03:29:40;;;;;;;19.38;3.72;;;12.40;99.90;;;;;;5051043;28;20198;-77
2022/05/28 03:32:09;;;;;;;15.63;4.15;;;12.50;99.90;;;;;;5066457;28;20266;-76
2022/05/28 03:34:42;;;;;;;17.63;3.80;;;12.30;99.90;;;;;;5065997;28;20175;-76
2022/05/28 03:37:29;;;;;;;12.57;4.35;;;12.30;99.90;;;;;;5049935;28;20246;-77
2022/05/28 03:39:57;;;;;;;7.95;3.75;;;12.20;99.90;;;;;;5066238;28;20187;-77
2022/05/28 03:42:29;;;;;;;9.13;3.50;;;12.10;99.90;;;;;;5065329;28;20171;-76
2022/05/28 03:44:56;;;;;;;10.63;3.40;;;12.00;99.90;;;;;;5065053;28;20206;-76
2022/05/28 03:47:27;;;;;;;11.35;3.25;;;12.10;99.90;;;;;;5065930;28;20171;-77
2022/05/28 03:49:53;;;;;;;7.07;3.17;;;12.10;99.90;;;;;;5067546;28;20193;-76
2022/05/28 03:52:39;;;;;;;9.88;3.65;;;12.30;99.90;;;;;;5070753;28;20206;-76
2022/05/28 03:55:32;;;;;;;13.45;4.55;;;12.30;99.90;;;;;;5072079;28;20502;-79
2022/05/28 03:58:01;;;;;;;12.82;3.50;;;12.40;99.90;;;;;;5069577;28;20230;-77
2022/05/28 04:00:27;;;;;;;6.45;3.33;;;12.30;99.90;;;;;;5072218;28;20187;-79
2022/05/28 04:02:52;;;;;;;8.65;3.80;;;12.30;99.90;;;;;;5067244;28;20184;-77
2022/05/28 04:05:23;;;;;;;12.98;3.80;;;12.40;99.90;;;;;;5064276;28;20643;-79
2022/05/28 04:08:08;;;;;;;9.80;3.63;;;12.50;99.90;;;;;;5069630;28;20198;-79
2022/05/28 04:10:36;;;;;;;11.88;3.53;;;12.50;99.90;;;;;;5068213;28;20242;-81
2022/05/28 04:13:04;;;;;;;7.85;3.40;;;12.70;99.90;;;;;;5064324;28;20207;-78
2022/05/28 04:15:40;;;;;;;9.73;4.10;;;13.00;99.90;;;;;;5072321;28;20173;-77
2022/05/28 04:18:07;;;;;;;10.38;3.38;;;13.00;99.90;;;;;;5050085;28;20278;-81
2022/05/28 04:20:35;;;;;;;12.43;3.22;;;13.00;99.90;;;;;;5067055;28;20509;-77
2022/05/28 04:23:09;;;;;;;8.55;3.53;;;12.80;99.90;;;;;;5049095;28;20182;-77
2022/05/28 04:25:38;;;;;;;15.65;3.33;;;12.80;99.90;;;;;;5068621;28;20717;-77
2022/05/28 04:28:14;;;;;;;10.75;3.65;;;12.80;99.90;;;;;;5066789;28;20679;-76
2022/05/28 04:30:43;;;;;;;17.45;3.90;;;12.80;99.90;;;;;;5067896;28;20159;-76
2022/05/28 04:33:12;;;;;;;7.07;3.45;;;12.90;99.90;;;;;;5045665;28;20226;-77
2022/05/28 04:36:08;;;;;;;10.82;3.20;;;13.10;99.90;;;;;;5062287;28;20256;-78
2022/05/28 04:38:37;;;;;;;19.90;3.15;;;13.10;99.90;;;;;;5065248;28;20288;-77
2022/05/28 04:41:06;;;;;;;8.05;3.85;;;13.30;99.90;;;;;;5067521;28;20670;-77
2022/05/28 04:43:38;;;;;;;10.85;3.33;;;13.30;99.90;;;;;;5067201;28;20186;-78
2022/05/28 04:46:06;;;;;;;7.82;3.42;;;13.40;99.90;;;;;;5064804;28;20225;-77
2022/05/28 04:48:38;;;;;;;11.82;3.75;;;13.50;99.90;;;;;;5062979;28;20183;-86
2022/05/28 04:51:09;;;;;;;13.75;3.17;;;13.50;99.90;;;;;;5066912;28;20186;-77
2022/05/28 04:53:34;;;;;;;10.77;4.00;;;13.40;99.90;;;;;;5044950;28;20217;-87
2022/05/28 04:56:00;;;;;;;12.00;3.88;;;13.30;99.90;;;;;;5063482;28;20171;-77
2022/05/28 04:58:30;;;;;;;8.95;3.42;;;13.20;99.90;;;;;;5066614;28;20222;-78
2022/05/28 05:01:02;;;;;;;8.55;3.90;;;13.30;99.90;;;;;;5067383;28;20610;-77
2022/05/28 05:03:32;;;;;;;10.82;3.60;;;13.50;99.90;;;;;;5047128;28;20167;-76
2022/05/28 05:05:59;;;;;;;14.90;4.43;;;13.60;99.90;;;;;;5064767;28;20263;-77
2022/05/28 05:08:46;;;;;;;19.67;3.83;;;13.70;99.90;;;;;;5065963;28;20233;-77
2022/05/28 05:11:14;;;;;;;6.35;3.15;;;13.90;99.90;;;;;;5065055;28;20167;-77
2022/05/28 05:14:02;;;;;;;12.85;4.15;;;13.90;99.90;;;;;;5066519;28;20245;-82
2022/05/28 05:16:28;;;;;;;8.45;3.33;;;13.90;99.90;;;;;;5060223;28;20201;-77
2022/05/28 05:18:54;;;;;;;5.03;2.95;;;13.90;99.90;;;;;;5063897;28;20656;-86
2022/05/28 05:21:23;;;;;;;11.85;3.55;;;14.00;99.90;;;;;;5059776;28;20164;-80
2022/05/28 05:23:49;;;;;;;11.80;4.30;;;14.20;99.90;;;;;;5046455;28;20641;-75
2022/05/28 05:26:18;;;;;;;5.75;3.40;;;14.30;99.90;;;;;;5052294;28;20233;-87
2022/05/28 05:28:44;;;;;;;16.70;4.00;;;14.40;99.90;;;;;;5056409;28;20194;-94
2022/05/28 05:31:10;;;;;;;6.15;3.10;;;14.30;99.90;;;;;;5037871;28;20168;-91
2022/05/28 05:33:36;;;;;;;12.00;4.40;;;14.20;99.90;;;;;;5055085;28;20583;-91
2022/05/28 05:36:03;;;;;;;11.43;3.63;;;14.20;99.90;;;;;;5058056;28;20183;-85
2022/05/28 05:38:28;;;;;;;6.72;3.95;;;14.20;99.90;;;;;;5057130;28;20240;-90
2022/05/28 05:40:54;;;;;;;8.88;2.88;;;14.30;99.90;;;;;;5056888;28;20170;-89
2022/05/28 05:43:20;;;;;;;14.30;3.63;;;14.50;99.90;;;;;;5060443;28;20160;-90
2022/05/28 05:45:54;;;;;;;19.25;4.55;;;14.50;99.90;;;;;;5063121;28;20218;-88
2022/05/28 05:48:20;;;;;;;12.43;4.22;;;14.60;99.90;;;;;;5054495;28;20202;-79
2022/05/28 05:50:46;;;;;;;13.88;3.50;;;14.60;99.90;;;;;;5074650;28;20163;-91
2022/05/28 05:53:11;;;;;;;15.38;2.90;;;14.60;99.90;;;;;;5071216;28;20221;-89
2022/05/28 05:55:37;;;;;;;6.15;2.95;;;14.40;99.90;;;;;;5062466;28;20195;-90
2022/05/28 05:58:04;;;;;;;14.43;3.28;;;14.50;99.90;;;;;;5055689;28;20595;-90
2022/05/28 06:00:29;;;;;;;7.35;3.45;;;14.60;99.90;;;;;;5054182;28;20680;-91
2022/05/28 06:02:55;;;;;;;7.15;2.88;;;14.70;99.90;;;;;;5053734;28;20223;-90
2022/05/28 06:05:21;;;;;;;8.73;3.10;;;14.90;99.90;;;;;;5056504;28;20167;-88
2022/05/28 06:07:47;;;;;;;15.65;3.00;;;14.90;99.90;;;;;;5057675;28;20186;-92
2022/05/28 06:10:13;;;;;;;7.75;2.65;;;15.10;99.90;;;;;;5058648;28;20313;-88
2022/05/28 06:12:39;;;;;;;6.10;1.95;;;15.10;99.90;;;;;;5058246;28;20285;-92
2022/05/28 06:15:08;;;;;;;10.70;2.30;;;15.30;99.90;;;;;;5062023;28;20167;-76
2022/05/28 06:17:35;;;;;;;6.70;2.05;;;15.10;99.90;;;;;;5064523;28;20191;-86
2022/05/28 06:20:04;;;;;;;11.73;2.17;;;14.90;99.90;;;;;;5040643;28;20167;-95
2022/05/28 06:22:35;;;;;;;13.27;1.90;;;14.80;99.90;;;;;;5043273;28;20183;-91
2022/05/28 06:25:08;;;;;;;14.02;2.50;;;15.00;99.90;;;;;;5069103;28;20168;-81
2022/05/28 06:27:46;;;;;;;15.85;2.00;;;15.10;99.90;;;;;;5069393;28;20175;-77
2022/05/28 06:30:33;;;;;;;16.30;1.95;;;15.30;99.90;;;;;;5073671;28;20183;-77
2022/05/28 06:33:00;;;;;;;7.38;1.98;;;15.50;99.90;;;;;;5063811;28;20702;-79
2022/05/28 06:35:25;;;;;;;9.60;2.53;;;15.40;99.90;;;;;;5057445;28;20255;-90
2022/05/28 06:37:52;;;;;;;7.13;1.67;;;15.30;99.90;;;;;;5057639;28;20242;-96
2022/05/28 06:40:18;;;;;;;10.65;2.10;;;15.50;99.90;;;;;;5058396;28;20155;-88
2022/05/28 06:42:46;;;;;;;7.93;1.60;;;15.60;99.90;;;;;;5057482;28;20178;-80
2022/05/28 06:45:14;;;;;;;12.90;1.58;;;15.90;99.90;;;;;;5057831;28;20254;-84
2022/05/28 06:47:42;;;;;;;7.63;2.28;;;16.00;99.90;;;;;;5057382;28;20195;-83
2022/05/28 06:52:58;;;;;;;5.97;1.70;;;16.00;99.90;;;;;;5057922;28;20213;-88
2022/05/28 06:55:24;;;;;;;8.10;1.70;;;16.10;99.90;;;;;;5057262;28;20156;-88
2022/05/28 06:57:50;;;;;;;11.90;1.58;;;15.90;99.90;;;;;;5056992;28;20683;-83
2022/05/28 07:00:17;;;;;;;7.75;2.20;;;16.30;99.90;;;;;;5055407;28;20195;-85
2022/05/28 07:02:42;;;;;;;12.02;1.80;;;16.80;99.90;;;;;;5055463;28;20171;-86
2022/05/28 07:05:15;;;;;;;13.20;1.58;;;17.20;99.90;;;;;;5055304;28;20170;-78
2022/05/28 07:07:41;;;;;;;3.75;1.13;;;17.80;99.90;;;;;;5055443;28;20179;-78
2022/05/28 07:10:08;;;;;;;6.10;1.10;;;17.90;99.90;;;;;;5054905;28;20171;-77
2022/05/28 07:12:34;;;;;;;2.38;0.73;;;18.50;99.90;;;;;;5054738;28;20194;-76
2022/05/28 07:15:00;;;;;;;2.67;1.00;;;19.10;99.90;;;;;;5054928;28;20186;-82
2022/05/28 07:17:26;;;;;;;8.23;1.48;;;19.20;99.90;;;;;;5056224;28;20682;-81
2022/05/28 07:19:51;;;;;;;7.20;1.52;;;19.50;99.90;;;;;;5056647;28;20167;-80
2022/05/28 07:22:17;;;;;;;7.68;1.30;;;19.30;99.90;;;;;;5055733;28;20174;-77
2022/05/28 07:24:43;;;;;;;3.08;0.73;;;19.90;99.90;;;;;;5055740;28;20646;-79
2022/05/28 07:27:11;;;;;;;3.50;0.90;;;20.20;99.90;;;;;;5054712;28;20177;-84
2022/05/28 07:29:37;;;;;;;6.30;1.10;;;20.50;99.90;;;;;;5054630;28;20225;-81
2022/05/28 07:32:03;;;;;;;4.40;0.73;;;19.60;99.90;;;;;;5054168;28;20286;-80
2022/05/28 07:34:29;;;;;;;8.80;1.42;;;20.40;99.90;;;;;;5054548;28;20163;-80
2022/05/28 07:36:55;;;;;;;6.85;1.15;;;20.60;99.90;;;;;;5036350;28;20274;-83
2022/05/28 07:39:20;;;;;;;3.45;1.10;;;19.90;99.90;;;;;;5053974;28;20624;-82
2022/05/28 07:41:48;;;;;;;8.30;1.20;;;19.80;99.90;;;;;;5054360;28;20304;-78
2022/05/28 07:44:14;;;;;;;2.58;0.70;;;19.50;99.90;;;;;;5035829;28;20174;-79
2022/05/28 07:46:40;;;;;;;4.28;0.98;;;18.80;99.90;;;;;;5052922;28;20177;-79
2022/05/28 07:49:07;;;;;;;3.67;1.20;;;18.30;99.90;;;;;;5035378;28;20179;-78
2022/05/28 07:51:34;;;;;;;6.38;1.63;;;17.80;99.90;;;;;;5053016;28;20163;-78
2022/05/28 07:53:59;;;;;;;2.92;1.25;;;17.70;99.90;;;;;;5053492;28;20286;-79
2022/05/28 07:56:26;;;;;;;4.60;1.13;;;18.00;99.90;;;;;;5052705;28;20202;-80
2022/05/28 07:58:54;;;;;;;6.97;1.00;;;18.70;99.90;;;;;;5053187;28;20278;-79
2022/05/28 08:01:29;;;;;;;2.80;0.65;;;18.80;99.90;;;;;;5053400;28;20163;-78
2022/05/28 08:03:59;;;;;;;4.20;1.33;;;18.70;99.90;;;;;;5053348;28;20170;-77
2022/05/28 08:06:25;;;;;;;4.75;0.93;;;18.60;99.90;;;;;;5052784;28;20172;-80
2022/05/28 08:08:53;;;;;;;4.45;1.00;;;18.00;99.90;;;;;;5052555;28;20203;-78
2022/05/28 08:11:21;;;;;;;3.65;0.73;;;17.80;99.90;;;;;;5053631;28;20221;-78
2022/05/28 08:13:47;;;;;;;2.67;0.70;;;17.40;99.90;;;;;;5053148;28;20293;-79
2022/05/28 08:16:12;;;;;;;6.60;1.13;;;17.20;99.90;;;;;;5034449;28;20598;-79
2022/05/28 08:18:39;;;;;;;9.27;1.30;;;17.20;99.90;;;;;;5035217;28;20664;-82
2022/05/28 08:23:50;;;;;;;4.57;0.82;;;17.90;99.90;;;;;;5053455;28;20217;-82
2022/05/28 08:26:19;;;;;;;8.02;0.80;;;17.90;99.90;;;;;;5053144;28;20179;-83
2022/05/28 08:28:46;;;;;;;2.25;0.75;;;18.00;99.90;;;;;;5052670;28;20241;-82
2022/05/28 08:31:12;;;;;;;4.60;1.55;;;17.80;99.90;;;;;;5052931;28;20255;-79
2022/05/28 08:33:38;;;;;;;3.30;0.70;;;17.70;99.90;;;;;;5053165;28;20211;-82
2022/05/28 08:36:05;;;;;;;3.25;0.82;;;17.40;99.90;;;;;;5052818;28;20255;-83
2022/05/28 08:38:30;;;;;;;1.75;0.60;;;17.30;99.90;;;;;;5052890;28;20563;-81
2022/05/28 08:41:02;;;;;;;6.78;1.17;;;17.30;99.90;;;;;;5052808;28;20172;-78
2022/05/28 08:43:31;;;;;;;1.20;0.52;;;17.10;99.90;;;;;;5052553;28;20175;-79
2022/05/28 08:45:58;;;;;;;5.97;0.90;;;16.90;99.90;;;;;;5052244;28;20163;-78
2022/05/28 08:48:34;;;;;;;2.80;0.70;;;16.80;99.90;;;;;;5051987;28;20183;-79
2022/05/28 08:51:11;;;;;;;3.13;0.68;;;16.80;99.90;;;;;;5051401;28;20475;-77
2022/05/28 08:53:44;;;;;;;1.75;0.52;;;17.10;99.90;;;;;;5051817;28;20230;-81
2022/05/28 08:56:15;;;;;;;3.08;0.60;;;17.60;99.90;;;;;;5052253;28;20214;-85
2022/05/28 08:58:42;;;;;;;2.92;0.73;;;17.70;99.90;;;;;;5051900;28;20199;-79
2022/05/28 09:01:16;;;;;;;3.33;0.88;;;17.80;99.90;;;;;;5052479;28;20190;-79
2022/05/28 09:03:57;;;;;;;3.80;0.73;;;18.10;99.90;;;;;;5033986;28;20175;-78
2022/05/28 09:06:43;;;;;;;2.13;0.60;;;18.30;99.90;;;;;;5052145;28;20212;-79
2022/05/28 09:09:12;;;;;;;2.33;0.85;;;18.30;99.90;;;;;;5032802;28;20237;-78
2022/05/28 09:11:45;;;;;;;6.22;0.95;;;18.70;99.90;;;;;;5047214;28;20214;-82
2022/05/28 09:14:22;;;;;;;1.42;0.77;;;19.00;99.90;;;;;;5031649;28;20212;-79
2022/05/28 09:16:54;;;;;;;1.63;0.70;;;19.50;99.90;;;;;;5031685;28;20217;-79
2022/05/28 09:19:24;;;;;;;3.58;0.80;;;19.00;99.90;;;;;;5031201;28;20275;-78
2022/05/28 09:21:50;;;;;;;5.97;0.90;;;18.50;99.90;;;;;;5031736;28;20188;-78
2022/05/28 09:24:27;;;;;;;2.33;0.80;;;18.40;99.90;;;;;;5032340;28;20167;-80
2022/05/28 09:27:11;;;;;;;4.38;0.75;;;18.40;99.90;;;;;;5031566;28;20175;-77
2022/05/28 09:29:40;;;;;;;5.03;0.65;;;18.20;99.90;;;;;;5032834;28;20603;-79
2022/05/28 09:32:24;;;;;;;4.43;0.77;;;17.80;99.90;;;;;;5015640;28;20243;-78
2022/05/28 09:35:14;;;;;;;6.53;0.93;;;17.90;99.90;;;;;;5032724;28;20728;-77
2022/05/28 09:38:17;;;;;;;3.95;0.82;;;17.90;99.90;;;;;;5051178;28;20198;-76
2022/05/28 09:40:51;;;;;;;3.90;0.77;;;17.70;99.90;;;;;;5057475;28;20175;-76
2022/05/28 09:43:55;;;;;;;7.75;0.80;;;18.10;99.90;;;;;;5058052;28;20177;-76
2022/05/28 09:46:23;;;;;;;3.00;0.50;;;18.30;99.90;;;;;;5002347;28;20180;-78
2022/05/28 09:49:13;;;;;;;5.18;0.50;;;18.50;99.90;;;;;;4996009;28;20255;-76
2022/05/28 09:51:49;;;;;;;1.92;0.88;;;18.30;99.90;;;;;;5023529;28;20188;-76
2022/05/28 09:54:22;;;;;;;4.22;0.85;;;18.00;99.90;;;;;;5038657;28;20641;-76
2022/05/28 09:56:56;;;;;;;5.25;0.95;;;17.70;99.90;;;;;;5055830;28;20174;-76
2022/05/28 09:59:43;;;;;;;1.35;0.60;;;17.70;99.90;;;;;;5057664;28;20198;-76
2022/05/28 10:02:40;;;;;;;2.03;0.60;;;18.10;99.90;;;;;;5057810;28;20206;-77
2022/05/28 10:05:17;;;;;;;1.67;0.70;;;18.50;99.90;;;;;;5055910;28;20171;-78
2022/05/28 10:07:46;;;;;;;4.57;1.00;;;19.00;99.90;;;;;;5057919;28;20190;-77
2022/05/28 10:10:32;;;;;;;4.63;0.93;;;19.40;99.90;;;;;;5057612;28;20167;-77
2022/05/28 10:13:17;;;;;;;1.67;0.55;;;18.80;99.90;;;;;;5057919;28;20213;-77
2022/05/28 10:15:48;;;;;;;0.85;0.47;;;18.00;99.90;;;;;;5058367;28;20205;-78
2022/05/28 10:18:23;;;;;;;2.85;0.52;;;17.70;99.90;;;;;;5057865;28;20187;-76
2022/05/28 10:21:12;;;;;;;1.52;0.60;;;17.00;99.90;;;;;;5058299;28;20163;-77
2022/05/28 10:23:40;;;;;;;1.15;0.50;;;16.50;99.90;;;;;;5058455;28;20258;-77
2022/05/28 10:26:20;;;;;;;1.00;0.60;;;16.80;99.90;;;;;;5058325;28;20634;-77
2022/05/28 10:28:52;;;;;;;5.20;0.70;;;17.40;99.90;;;;;;5057662;28;20277;-77
2022/05/28 10:31:40;;;;;;;1.75;0.63;;;17.80;99.90;;;;;;5056449;28;20330;-76
2022/05/28 10:34:07;;;;;;;4.50;0.50;;;17.80;99.90;;;;;;5056316;28;20260;-78
2022/05/28 10:36:35;;;;;;;2.17;0.68;;;18.30;99.90;;;;;;5057883;28;20611;-78
2022/05/28 10:39:10;;;;;;;9.75;0.82;;;18.30;99.90;;;;;;5057166;28;20209;-77
2022/05/28 10:41:37;;;;;;;3.75;0.52;;;18.40;99.90;;;;;;5058038;28;20163;-77
2022/05/28 10:44:03;;;;;;;2.08;0.70;;;18.60;99.90;;;;;;5057249;28;20171;-77
2022/05/28 10:46:39;;;;;;;4.03;0.80;;;18.90;99.90;;;;;;5057533;28;20954;-78
2022/05/28 10:49:29;;;;;;;9.05;0.80;;;18.40;99.90;;;;;;5042028;28;20249;-77
2022/05/28 10:52:03;;;;;;;3.55;0.82;;;18.20;99.90;;;;;;5033273;28;20214;-77
2022/05/28 10:54:46;;;;;;;3.20;0.60;;;18.40;99.90;;;;;;5034063;28;20184;-77
2022/05/28 10:57:33;;;;;;;1.55;0.60;;;18.50;99.90;;;;;;5016229;28;20164;-77
2022/05/28 11:00:08;;;;;;;2.92;0.63;;;18.60;99.90;;;;;;5034290;28;20187;-77
2022/05/28 11:03:10;;;;;;;3.38;0.77;;;18.80;99.90;;;;;;5016623;28;20560;-76
2022/05/28 11:06:24;;;;;;;10.23;0.77;;;18.30;99.90;;;;;;5034692;28;20193;-81
2022/05/28 11:09:30;;;;;;;2.70;0.60;;;17.60;99.90;;;;;;5019901;28;20246;-82
2022/05/28 11:12:01;;;;;;;5.53;0.77;;;17.40;99.90;;;;;;4973604;28;20185;-79
2022/05/28 11:14:36;;;;;;;5.47;0.70;;;17.90;99.90;;;;;;4972272;28;20281;-77
2022/05/28 11:17:20;;;;;;;1.52;0.80;;;17.90;99.90;;;;;;4990050;28;20179;-78
2022/05/28 11:20:08;;;;;;;2.22;0.68;;;18.00;99.90;;;;;;5016525;28;20261;-81
2022/05/28 11:23:00;;;;;;;3.33;0.80;;;18.10;99.90;;;;;;5016306;28;20206;-79
2022/05/28 11:26:06;;;;;;;5.90;0.65;;;18.40;99.90;;;;;;5053808;28;20242;-81
2022/05/28 11:28:53;;;;;;;1.85;0.52;;;18.20;99.90;;;;;;5053770;28;20194;-80
2022/05/28 11:31:41;;;;;;;2.53;0.60;;;17.90;99.90;;;;;;5055193;28;20227;-78
2022/05/28 11:34:12;;;;;;;2.00;0.80;;;17.60;99.90;;;;;;5064669;28;20284;-79
2022/05/28 11:36:43;;;;;;;3.88;0.50;;;17.90;99.90;;;;;;5053489;28;20437;-79
2022/05/28 11:39:36;;;;;;;2.83;0.50;;;17.90;99.90;;;;;;5053973;28;20179;-78
2022/05/28 11:42:04;;;;;;;0.77;0.52;;;17.60;99.90;;;;;;5053615;28;20705;-80
2022/05/28 11:44:45;;;;;;;2.03;0.40;;;17.70;99.90;;;;;;5053562;28;20173;-78
2022/05/28 11:47:42;;;;;;;2.45;0.70;;;17.90;99.90;;;;;;5035287;28;20174;-78
2022/05/28 11:53:25;;;;;;;4.68;0.60;;;18.30;99.90;;;;;;5053483;28;20222;-78
2022/05/28 11:55:55;;;;;;;4.70;1.58;;;18.50;99.90;;;;;;5046268;28;20221;-81
2022/05/28 11:58:27;;;;;;;1.08;0.40;;;18.30;99.90;;;;;;5053393;28;20207;-80
2022/05/28 12:01:00;;;;;;;2.53;0.80;;;18.20;99.90;;;;;;5053939;28;20570;-80
2022/05/28 12:03:28;;;;;;;2.28;0.68;;;18.40;99.90;;;;;;5053437;28;20163;-83
2022/05/28 12:06:10;;;;;;;3.63;0.90;;;18.60;99.90;;;;;;5035698;28;20163;-78
2022/05/28 12:08:40;;;;;;;5.88;0.90;;;18.20;99.90;;;;;;5035622;28;20202;-80
2022/05/28 12:11:21;;;;;;;2.65;0.50;;;18.20;99.90;;;;;;5053900;28;20631;-80
2022/05/28 12:13:54;;;;;;;1.35;0.88;;;18.30;99.90;;;;;;5054011;28;20287;-79
2022/05/28 12:16:31;;;;;;;3.47;0.68;;;18.50;99.90;;;;;;5053461;28;20167;-82
2022/05/28 12:19:22;;;;;;;3.92;0.60;;;18.80;99.90;;;;;;5035575;28;20191;-79
2022/05/28 12:21:48;;;;;;;6.22;0.70;;;18.50;99.90;;;;;;5048663;28;20179;-79
2022/05/28 12:24:20;;;;;;;1.63;0.47;;;18.20;99.90;;;;;;5053574;28;20170;-82
2022/05/28 12:27:09;;;;;;;3.65;0.88;;;18.00;99.90;;;;;;5035835;28;20596;-80
2022/05/28 12:29:54;;;;;;;5.45;0.70;;;18.20;99.90;;;;;;5053875;28;20187;-76
2022/05/28 12:32:23;;;;;;;3.88;1.90;;;18.20;99.90;;;;;;5053497;28;20199;-81
2022/05/28 12:35:03;;;;;;;4.78;1.02;;;18.80;99.90;;;;;;5053717;28;20769;-81
2022/05/28 12:37:34;;;;;;;2.33;0.63;;;19.10;99.90;;;;;;5053416;28;20166;-80
2022/05/28 12:40:13;;;;;;;5.97;0.55;;;19.00;99.90;;;;;;5053012;28;20174;-79
2022/05/28 12:42:40;;;;;;;2.33;0.50;;;18.60;99.90;;;;;;5053091;28;20163;-80
2022/05/28 12:45:18;;;;;;;3.08;0.80;;;18.60;99.90;;;;;;5052973;28;20186;-80
2022/05/28 12:47:44;;;;;;;2.10;0.80;;;18.40;99.90;;;;;;5052583;28;20198;-78
2022/05/28 12:50:13;;;;;;;2.28;0.85;;;18.70;99.90;;;;;;5052337;28;20277;-78
2022/05/28 12:53:05;;;;;;;1.58;0.90;;;19.00;99.90;;;;;;5052207;28;20739;-78
2022/05/28 12:55:35;;;;;;;3.38;0.95;;;19.20;99.90;;;;;;5052484;28;20163;-80
2022/05/28 12:58:08;;;;;;;9.77;0.60;;;18.70;99.90;;;;;;5052239;28;20288;-78
2022/05/28 13:00:48;;;;;;;1.33;0.63;;;18.30;99.90;;;;;;5052233;28;20175;-83
2022/05/28 13:03:16;;;;;;;1.48;0.50;;;18.20;99.90;;;;;;5052264;28;20171;-80
2022/05/28 13:06:00;;;;;;;2.55;0.57;;;18.10;99.90;;;;;;5052246;28;20167;-81
2022/05/28 13:08:29;;;;;;;5.40;0.50;;;18.20;99.90;;;;;;5052220;28;20187;-78
2022/05/28 13:11:02;;;;;;;2.65;0.80;;;17.70;99.90;;;;;;5051914;28;20224;-80
2022/05/28 13:13:27;;;;;;;5.20;0.95;;;18.00;99.90;;;;;;5051393;28;20292;-80
2022/05/28 13:15:59;;;;;;;1.65;0.63;;;17.80;99.90;;;;;;5051689;28;20210;-81
2022/05/28 13:18:33;;;;;;;0.80;0.40;;;17.80;99.90;;;;;;5051633;28;20195;-80
2022/05/28 13:20:59;;;;;;;1.30;0.50;;;18.00;99.90;;;;;;5051579;28;20162;-79
2022/05/28 13:23:43;;;;;;;1.77;0.40;;;18.10;99.90;;;;;;5052048;28;20189;-79
2022/05/28 13:26:21;;;;;;;1.05;0.40;;;18.40;99.90;;;;;;5051987;28;20182;-82
2022/05/28 13:28:58;;;;;;;1.63;0.55;;;18.70;99.90;;;;;;5051994;28;20194;-78